Time;durP1;ratioP1;P1;durP2;ratioP2;P2;SDS_P1;SDS_P2;PMS_P1;PMS_P2;Temp;Humidity;BMP_temperature;BMP_pressure;BME280_temperature;BME280_humidity;BME280_pressure;Samples;Min_cycle;Max_cycle;Signal;HPM_P1;HPM_P2
2022/09/29 00:02:24;;;;;;;6.00;4.47;;;13.20;99.90;;;;;;5008688;28;20325;-75
2022/09/29 00:04:52;;;;;;;5.77;4.50;;;13.20;99.90;;;;;;5006252;28;20298;-75
2022/09/29 00:07:19;;;;;;;6.27;4.53;;;13.20;99.90;;;;;;5006496;28;20659;-75
2022/09/29 00:09:46;;;;;;;6.63;4.40;;;13.10;99.90;;;;;;5006795;28;20255;-75
2022/09/29 00:12:13;;;;;;;6.30;5.10;;;13.10;99.90;;;;;;5006329;28;20302;-74
2022/09/29 00:14:40;;;;;;;5.87;4.30;;;13.10;99.90;;;;;;5008204;28;20208;-73
2022/09/29 00:17:09;;;;;;;6.10;4.53;;;13.10;99.90;;;;;;5009103;28;21154;-73
2022/09/29 00:19:36;;;;;;;5.43;4.17;;;13.10;99.90;;;;;;5008207;28;20213;-74
2022/09/29 00:22:03;;;;;;;4.43;3.53;;;13.10;99.90;;;;;;5005648;28;20218;-74
2022/09/29 00:24:30;;;;;;;4.13;3.73;;;13.10;99.90;;;;;;5006555;28;20683;-74
2022/09/29 00:26:57;;;;;;;7.33;3.87;;;13.10;99.90;;;;;;5005261;28;20202;-74
2022/09/29 00:29:24;;;;;;;3.80;3.40;;;13.10;99.90;;;;;;5008018;28;20224;-74
2022/09/29 00:31:51;;;;;;;3.10;2.80;;;13.10;99.90;;;;;;5007739;28;20201;-73
2022/09/29 00:34:20;;;;;;;3.30;3.00;;;13.10;99.90;;;;;;5006285;28;20204;-74
2022/09/29 00:36:47;;;;;;;4.90;3.27;;;13.10;99.90;;;;;;5007636;28;20640;-73
2022/09/29 00:39:14;;;;;;;4.27;3.60;;;13.10;99.90;;;;;;5006015;28;20701;-74
2022/09/29 00:41:42;;;;;;;4.30;3.50;;;13.10;99.90;;;;;;5005627;28;20328;-73
2022/09/29 00:44:42;;;;;;;4.17;2.93;;;13.10;99.90;;;;;;5006983;28;20289;-73
2022/09/29 00:47:13;;;;;;;2.73;2.53;;;13.10;99.90;;;;;;5007532;28;20607;-74
2022/09/29 00:49:45;;;;;;;2.80;2.60;;;13.20;99.90;;;;;;5007849;28;20197;-74
2022/09/29 00:52:17;;;;;;;2.70;2.50;;;13.20;99.90;;;;;;5006569;28;20695;-74
2022/09/29 00:54:48;;;;;;;2.37;2.10;;;13.20;99.90;;;;;;5007409;28;20198;-74
2022/09/29 00:57:19;;;;;;;2.20;2.00;;;13.20;99.90;;;;;;5005655;28;20683;-74
2022/09/29 00:59:50;;;;;;;4.20;2.90;;;13.20;99.90;;;;;;5008240;28;20670;-74
2022/09/29 01:02:19;;;;;;;2.47;2.27;;;13.20;99.90;;;;;;5006914;28;20309;-75
2022/09/29 01:04:50;;;;;;;2.77;2.30;;;13.20;99.90;;;;;;5006858;28;20634;-74
2022/09/29 01:07:18;;;;;;;2.73;2.00;;;13.20;99.90;;;;;;5004779;28;20280;-74
2022/09/29 01:09:45;;;;;;;2.10;2.00;;;13.20;99.90;;;;;;5006373;28;20761;-75
2022/09/29 01:12:12;;;;;;;1.97;1.77;;;13.20;99.90;;;;;;5008254;28;20201;-74
2022/09/29 01:14:40;;;;;;;2.00;1.90;;;13.30;99.90;;;;;;5007285;28;20337;-75
2022/09/29 01:17:07;;;;;;;1.53;1.43;;;13.30;99.90;;;;;;5008280;28;20602;-72
2022/09/29 01:19:46;;;;;;;1.77;1.67;;;13.30;99.90;;;;;;5007940;28;20205;-74
2022/09/29 01:22:38;;;;;;;1.60;1.50;;;13.30;99.90;;;;;;5008007;28;20729;-73
2022/09/29 01:25:23;;;;;;;2.00;1.90;;;13.30;99.90;;;;;;5008828;28;20654;-73
2022/09/29 01:28:20;;;;;;;3.13;2.10;;;13.30;99.90;;;;;;5009295;28;20348;-73
2022/09/29 01:31:06;;;;;;;1.70;1.60;;;13.30;99.90;;;;;;5011328;28;20288;-73
2022/09/29 01:33:39;;;;;;;1.50;1.43;;;13.20;99.90;;;;;;5008747;28;20188;-72
2022/09/29 01:36:12;;;;;;;2.60;1.67;;;13.30;99.90;;;;;;5011671;28;20666;-74
2022/09/29 01:38:53;;;;;;;1.90;1.80;;;13.30;99.90;;;;;;5007042;28;20297;-73
2022/09/29 01:41:30;;;;;;;2.30;2.10;;;13.30;99.90;;;;;;5010783;28;20602;-74
2022/09/29 01:44:02;;;;;;;2.50;2.30;;;13.30;99.90;;;;;;5010533;28;20667;-74
2022/09/29 01:46:33;;;;;;;2.67;2.47;;;13.20;99.90;;;;;;5010017;28;20268;-74
2022/09/29 01:49:03;;;;;;;3.00;2.70;;;13.20;99.90;;;;;;5010429;28;20197;-74
2022/09/29 01:51:38;;;;;;;3.30;2.60;;;13.20;99.90;;;;;;5010060;28;20558;-74
2022/09/29 01:54:12;;;;;;;2.90;2.70;;;13.20;99.90;;;;;;5007981;28;20201;-74
2022/09/29 01:56:43;;;;;;;2.20;2.10;;;13.20;99.90;;;;;;5009249;28;20213;-74
2022/09/29 01:59:15;;;;;;;2.30;2.20;;;13.20;99.90;;;;;;5009218;28;20193;-74
2022/09/29 02:01:46;;;;;;;2.33;2.13;;;13.20;99.90;;;;;;5010171;28;20293;-74
2022/09/29 02:04:18;;;;;;;2.20;2.03;;;13.20;99.90;;;;;;5008284;28;20535;-74
2022/09/29 02:06:49;;;;;;;2.00;1.90;;;13.20;99.90;;;;;;5008483;28;20280;-75
2022/09/29 02:09:22;;;;;;;2.20;2.10;;;13.20;99.90;;;;;;5010009;28;20202;-74
2022/09/29 02:11:52;;;;;;;1.80;1.70;;;13.20;99.90;;;;;;5010219;28;20606;-74
2022/09/29 02:14:23;;;;;;;1.83;1.73;;;13.20;99.90;;;;;;5010424;28;20212;-74
2022/09/29 02:16:58;;;;;;;1.97;1.80;;;13.20;99.90;;;;;;5007052;28;20306;-74
2022/09/29 02:19:26;;;;;;;1.67;1.57;;;13.20;99.90;;;;;;5007350;28;20186;-74
2022/09/29 02:21:54;;;;;;;1.90;1.80;;;13.20;99.90;;;;;;5011018;28;20186;-74
2022/09/29 02:24:22;;;;;;;1.40;1.30;;;13.20;99.90;;;;;;5006547;28;20202;-74
2022/09/29 02:26:50;;;;;;;2.10;2.00;;;13.20;99.90;;;;;;5008813;28;20208;-74
2022/09/29 02:29:18;;;;;;;1.90;1.73;;;13.20;99.90;;;;;;5009714;28;20206;-74
2022/09/29 02:31:46;;;;;;;1.70;1.60;;;13.20;99.90;;;;;;5011227;28;20197;-74
2022/09/29 02:34:18;;;;;;;1.90;1.80;;;13.20;99.90;;;;;;5009667;28;20242;-74
2022/09/29 02:36:57;;;;;;;1.93;1.83;;;13.20;99.90;;;;;;5009200;28;20194;-74
2022/09/29 02:39:39;;;;;;;1.70;1.60;;;13.20;99.90;;;;;;5008231;28;20208;-74
2022/09/29 02:42:17;;;;;;;1.80;1.70;;;13.20;99.90;;;;;;5007323;28;20610;-75
2022/09/29 02:45:08;;;;;;;1.80;1.70;;;13.20;99.90;;;;;;5009223;28;20211;-74
2022/09/29 02:47:59;;;;;;;1.90;1.80;;;13.20;99.90;;;;;;5009039;28;20252;-74
2022/09/29 02:50:48;;;;;;;1.33;1.30;;;13.20;99.90;;;;;;5024768;28;20216;-74
2022/09/29 02:53:24;;;;;;;1.70;1.60;;;13.20;99.90;;;;;;5008907;28;20226;-74
2022/09/29 02:55:57;;;;;;;1.50;1.50;;;13.20;99.90;;;;;;5008826;28;20196;-74
2022/09/29 02:58:30;;;;;;;1.37;1.37;;;13.30;99.90;;;;;;5008907;28;20200;-74
2022/09/29 03:00:59;;;;;;;1.57;1.47;;;13.20;99.90;;;;;;5008977;28;20197;-74
2022/09/29 03:03:26;;;;;;;2.50;2.30;;;13.30;99.90;;;;;;5008450;28;20260;-74
2022/09/29 03:05:54;;;;;;;2.17;2.07;;;13.30;99.90;;;;;;5008603;28;20231;-74
2022/09/29 03:08:21;;;;;;;1.87;1.77;;;13.30;99.90;;;;;;5009265;28;20198;-74
2022/09/29 03:10:48;;;;;;;1.70;1.60;;;13.20;99.90;;;;;;5009364;28;20200;-74
2022/09/29 03:13:15;;;;;;;1.93;1.70;;;13.20;99.90;;;;;;5009486;28;20309;-74
2022/09/29 03:15:43;;;;;;;2.17;1.50;;;13.20;99.90;;;;;;5009477;28;20276;-74
2022/09/29 03:18:10;;;;;;;2.37;2.17;;;13.20;99.90;;;;;;5009805;28;20197;-74
2022/09/29 03:20:37;;;;;;;2.03;1.80;;;13.20;99.90;;;;;;5010660;28;20200;-75
2022/09/29 03:23:05;;;;;;;2.50;2.30;;;13.20;99.90;;;;;;5008604;28;20261;-74
2022/09/29 03:25:32;;;;;;;2.57;1.90;;;13.20;99.90;;;;;;5008966;28;20202;-74
2022/09/29 03:27:59;;;;;;;2.10;1.90;;;13.10;99.90;;;;;;5007562;28;20297;-75
2022/09/29 03:30:26;;;;;;;2.13;1.93;;;13.10;99.90;;;;;;5006032;28;20194;-74
2022/09/29 03:32:53;;;;;;;1.50;1.40;;;13.10;99.90;;;;;;5007222;28;20288;-74
2022/09/29 03:35:20;;;;;;;1.27;1.17;;;13.10;99.90;;;;;;5007078;28;20196;-74
2022/09/29 03:37:47;;;;;;;1.50;1.40;;;13.10;99.90;;;;;;5008663;28;20224;-74
2022/09/29 03:40:16;;;;;;;2.07;1.40;;;13.10;99.90;;;;;;5004227;28;20723;-73
2022/09/29 03:42:45;;;;;;;1.30;1.30;;;13.10;99.90;;;;;;5009230;28;20218;-74
2022/09/29 03:45:13;;;;;;;1.10;1.10;;;13.10;99.90;;;;;;5008253;28;20223;-73
2022/09/29 03:47:40;;;;;;;1.43;1.33;;;13.10;99.90;;;;;;5007598;28;20300;-73
2022/09/29 03:50:07;;;;;;;1.10;1.10;;;13.10;99.90;;;;;;5008285;28;20202;-73
2022/09/29 03:52:34;;;;;;;1.33;1.23;;;13.10;99.90;;;;;;5007935;28;20209;-73
2022/09/29 03:55:01;;;;;;;1.40;1.30;;;13.10;99.90;;;;;;5006344;28;20280;-74
2022/09/29 03:57:30;;;;;;;1.77;1.67;;;13.10;99.90;;;;;;5009262;28;20220;-74
2022/09/29 03:59:57;;;;;;;1.50;1.40;;;13.10;99.90;;;;;;5008929;28;20202;-73
2022/09/29 04:02:24;;;;;;;1.17;1.17;;;13.20;99.90;;;;;;5005564;28;20189;-73
2022/09/29 04:04:51;;;;;;;1.10;1.10;;;13.20;99.90;;;;;;5006250;28;20222;-74
2022/09/29 04:07:18;;;;;;;1.50;1.40;;;13.20;99.90;;;;;;5004722;28;20732;-74
2022/09/29 04:09:45;;;;;;;1.27;1.27;;;13.20;99.90;;;;;;5007076;28;20231;-74
2022/09/29 04:12:11;;;;;;;1.13;1.10;;;13.20;99.90;;;;;;5008043;28;20244;-74
2022/09/29 04:14:40;;;;;;;1.50;1.30;;;13.20;99.90;;;;;;5004779;28;20341;-74
2022/09/29 04:17:07;;;;;;;1.30;1.20;;;13.20;99.90;;;;;;5008014;28;20300;-74
2022/09/29 04:19:34;;;;;;;1.40;1.30;;;13.20;99.90;;;;;;5008513;28;20231;-74
2022/09/29 04:22:01;;;;;;;1.67;1.57;;;13.20;99.90;;;;;;5009020;28;20198;-74
2022/09/29 04:24:28;;;;;;;1.10;1.10;;;13.20;99.90;;;;;;5006303;28;20237;-74
2022/09/29 04:26:55;;;;;;;1.37;1.30;;;13.20;99.90;;;;;;5009384;28;20216;-74
2022/09/29 04:29:22;;;;;;;1.50;1.40;;;13.20;99.90;;;;;;5006271;28;20277;-74
2022/09/29 04:31:50;;;;;;;3.63;1.10;;;13.20;99.90;;;;;;5008338;28;20234;-74
2022/09/29 04:34:17;;;;;;;1.60;1.50;;;13.20;99.90;;;;;;5009038;28;20284;-74
2022/09/29 04:36:44;;;;;;;1.37;1.27;;;13.20;99.90;;;;;;5008834;28;20221;-74
2022/09/29 04:39:11;;;;;;;1.37;1.33;;;13.20;99.90;;;;;;5008133;28;20196;-74
2022/09/29 04:41:40;;;;;;;1.30;1.20;;;13.30;99.90;;;;;;5006447;28;20260;-74
2022/09/29 04:44:07;;;;;;;1.53;1.43;;;13.20;99.90;;;;;;5008213;28;20216;-73
2022/09/29 04:46:34;;;;;;;1.40;1.30;;;13.20;99.90;;;;;;5008112;28;20195;-74
2022/09/29 04:49:02;;;;;;;1.13;1.13;;;13.20;99.90;;;;;;5008592;28;20211;-74
2022/09/29 04:51:29;;;;;;;1.43;1.20;;;13.20;99.90;;;;;;5008404;28;20197;-75
2022/09/29 04:53:58;;;;;;;1.60;1.50;;;13.10;99.90;;;;;;5007647;28;20187;-75
2022/09/29 04:56:30;;;;;;;1.40;1.30;;;13.10;99.90;;;;;;5008127;28;20198;-72
2022/09/29 04:58:57;;;;;;;1.50;1.40;;;13.10;99.90;;;;;;5006130;28;20292;-73
2022/09/29 05:01:24;;;;;;;1.40;1.30;;;13.10;99.90;;;;;;5012121;28;20302;-73
2022/09/29 05:03:52;;;;;;;2.03;1.57;;;13.10;99.90;;;;;;5012526;28;20228;-73
2022/09/29 05:06:20;;;;;;;1.20;1.10;;;13.00;99.90;;;;;;5011832;28;20304;-74
2022/09/29 05:08:47;;;;;;;1.50;1.40;;;13.00;99.90;;;;;;5009036;28;20377;-73
2022/09/29 05:11:14;;;;;;;1.60;1.50;;;13.00;99.90;;;;;;5010963;28;20193;-73
2022/09/29 05:13:41;;;;;;;1.70;1.60;;;13.00;99.90;;;;;;5011772;28;20574;-73
2022/09/29 05:16:08;;;;;;;1.40;1.30;;;13.00;99.90;;;;;;5009529;28;20254;-74
2022/09/29 05:18:35;;;;;;;1.93;1.80;;;13.10;99.90;;;;;;5012566;28;20283;-74
2022/09/29 05:21:03;;;;;;;2.33;1.97;;;13.00;99.90;;;;;;5011481;28;20284;-74
2022/09/29 05:23:32;;;;;;;2.50;2.30;;;13.00;99.90;;;;;;5010124;28;20212;-74
2022/09/29 05:26:02;;;;;;;2.30;2.10;;;13.00;99.90;;;;;;5010604;28;20275;-73
2022/09/29 05:28:29;;;;;;;2.37;2.17;;;13.10;99.90;;;;;;5010505;28;20420;-74
2022/09/29 05:31:00;;;;;;;2.17;2.07;;;13.00;99.90;;;;;;5008306;28;20572;-74
2022/09/29 05:33:27;;;;;;;8.00;2.77;;;13.00;99.90;;;;;;5010552;28;20191;-74
2022/09/29 05:35:54;;;;;;;3.70;2.60;;;13.00;99.90;;;;;;5009243;28;20196;-74
2022/09/29 05:38:21;;;;;;;4.57;2.50;;;13.00;99.90;;;;;;5009307;28;20201;-74
2022/09/29 05:40:50;;;;;;;3.87;3.47;;;13.00;99.90;;;;;;5008462;28;20287;-73
2022/09/29 05:43:17;;;;;;;2.70;2.50;;;13.00;99.90;;;;;;5010181;28;20217;-74
2022/09/29 05:45:44;;;;;;;2.90;2.70;;;13.00;99.90;;;;;;5011498;28;20227;-75
2022/09/29 05:48:11;;;;;;;2.53;2.30;;;13.00;99.90;;;;;;5009660;28;20236;-73
2022/09/29 05:50:40;;;;;;;4.57;3.63;;;13.00;99.90;;;;;;5010400;28;20673;-73
2022/09/29 05:53:07;;;;;;;3.20;3.00;;;13.00;99.90;;;;;;5008702;28;20230;-74
2022/09/29 05:55:35;;;;;;;4.00;3.60;;;12.90;99.90;;;;;;5005698;28;20224;-74
2022/09/29 05:58:04;;;;;;;3.33;3.03;;;12.90;99.90;;;;;;5009207;28;20289;-74
2022/09/29 06:00:32;;;;;;;2.97;2.67;;;12.90;99.90;;;;;;5011272;28;20271;-74
2022/09/29 06:02:59;;;;;;;2.50;2.30;;;12.90;99.90;;;;;;5009366;28;20347;-74
2022/09/29 06:05:26;;;;;;;2.10;2.00;;;12.90;99.90;;;;;;5010076;28;20200;-74
2022/09/29 06:07:53;;;;;;;2.27;2.07;;;13.00;99.90;;;;;;5005108;28;20201;-75
2022/09/29 06:10:20;;;;;;;2.60;2.40;;;13.00;99.90;;;;;;5006168;28;20215;-73
2022/09/29 06:12:50;;;;;;;2.80;2.50;;;13.10;99.90;;;;;;5010223;28;20205;-74
2022/09/29 06:15:18;;;;;;;3.47;2.50;;;13.10;99.90;;;;;;5008042;28;20199;-73
2022/09/29 06:17:45;;;;;;;5.47;3.90;;;13.10;99.90;;;;;;5006788;28;20243;-74
2022/09/29 06:20:12;;;;;;;7.13;4.40;;;13.10;99.90;;;;;;5010098;28;20294;-75
2022/09/29 06:22:39;;;;;;;4.60;4.03;;;13.10;99.90;;;;;;5008898;28;20198;-74
2022/09/29 06:25:07;;;;;;;5.43;4.53;;;13.10;99.90;;;;;;5009421;28;20225;-74
2022/09/29 06:27:34;;;;;;;4.67;3.90;;;13.10;99.90;;;;;;5009663;28;20222;-74
2022/09/29 06:30:01;;;;;;;6.70;4.77;;;13.10;99.90;;;;;;5004586;28;20688;-73
2022/09/29 06:32:30;;;;;;;5.03;3.77;;;13.20;99.90;;;;;;5006381;28;20306;-74
2022/09/29 06:37:45;;;;;;;5.93;3.67;;;13.20;99.90;;;;;;5004810;28;20194;-74
2022/09/29 06:40:13;;;;;;;7.10;4.03;;;13.20;99.90;;;;;;5008924;28;20221;-74
2022/09/29 06:42:40;;;;;;;7.60;4.03;;;13.30;99.90;;;;;;5007627;28;20217;-74
2022/09/29 06:45:09;;;;;;;4.40;3.20;;;13.30;99.90;;;;;;5007315;28;20228;-74
2022/09/29 06:47:38;;;;;;;6.23;3.17;;;13.30;99.90;;;;;;5009916;28;20673;-74
2022/09/29 06:50:06;;;;;;;2.70;2.50;;;13.30;99.90;;;;;;5009432;28;20523;-74
2022/09/29 06:52:33;;;;;;;2.37;2.20;;;13.30;99.90;;;;;;5008364;28;20201;-73
2022/09/29 06:55:00;;;;;;;5.10;2.90;;;13.40;99.90;;;;;;5007639;28;20298;-74
2022/09/29 06:57:27;;;;;;;2.50;2.30;;;13.40;99.90;;;;;;5008146;28;20393;-75
2022/09/29 06:59:54;;;;;;;3.17;2.87;;;13.50;99.90;;;;;;5008455;28;20662;-74
2022/09/29 07:02:21;;;;;;;3.03;2.80;;;13.40;99.90;;;;;;5024712;28;20201;-74
2022/09/29 07:04:49;;;;;;;3.10;2.90;;;13.50;99.90;;;;;;5008186;28;20212;-74
2022/09/29 07:07:16;;;;;;;2.50;2.30;;;13.50;99.90;;;;;;5008758;28;20205;-73
2022/09/29 07:09:44;;;;;;;2.67;2.37;;;13.50;99.90;;;;;;5006297;28;20626;-74
2022/09/29 07:12:11;;;;;;;2.03;1.93;;;13.60;99.90;;;;;;5007989;28;20305;-74
2022/09/29 07:14:38;;;;;;;2.10;2.00;;;13.60;99.90;;;;;;5009117;28;20263;-74
2022/09/29 07:17:05;;;;;;;1.93;1.83;;;13.60;99.90;;;;;;5008255;28;20288;-74
2022/09/29 07:19:32;;;;;;;2.03;1.60;;;13.70;99.90;;;;;;5008487;28;20195;-74
2022/09/29 07:22:00;;;;;;;1.70;1.60;;;13.70;99.90;;;;;;5008203;28;20685;-74
2022/09/29 07:24:27;;;;;;;1.67;1.57;;;13.70;99.90;;;;;;5007377;28;20215;-73
2022/09/29 07:26:54;;;;;;;1.60;1.50;;;13.70;99.90;;;;;;5007268;28;20196;-74
2022/09/29 07:29:21;;;;;;;2.77;1.90;;;13.80;99.90;;;;;;5009184;28;20633;-73
2022/09/29 07:31:51;;;;;;;1.93;1.83;;;13.80;99.90;;;;;;5008819;28;20222;-73
2022/09/29 07:34:18;;;;;;;2.10;2.00;;;13.80;99.90;;;;;;5005862;28;20282;-73
2022/09/29 07:36:45;;;;;;;1.83;1.73;;;13.90;99.90;;;;;;5007000;28;20204;-74
2022/09/29 07:39:14;;;;;;;2.10;1.90;;;13.90;99.90;;;;;;5000714;28;20681;-75
2022/09/29 07:41:41;;;;;;;1.80;1.70;;;13.90;99.90;;;;;;5008695;28;20587;-73
2022/09/29 07:44:08;;;;;;;2.00;1.90;;;14.00;99.90;;;;;;5005636;28;20214;-74
2022/09/29 07:46:35;;;;;;;1.60;1.50;;;14.10;99.90;;;;;;5008974;28;20202;-74
2022/09/29 07:49:02;;;;;;;2.00;1.80;;;14.30;99.90;;;;;;5008275;28;20610;-73
2022/09/29 07:51:29;;;;;;;1.77;1.67;;;14.60;99.90;;;;;;5005493;28;20200;-73
2022/09/29 07:54:00;;;;;;;3.47;2.30;;;14.70;99.90;;;;;;5005639;28;20285;-74
2022/09/29 07:56:29;;;;;;;2.23;2.03;;;14.70;99.90;;;;;;5009010;28;20195;-74
2022/09/29 07:58:56;;;;;;;1.87;1.70;;;14.70;99.90;;;;;;5007376;28;20191;-74
2022/09/29 08:01:24;;;;;;;1.47;1.37;;;14.60;99.90;;;;;;5001664;28;20198;-73
2022/09/29 08:03:52;;;;;;;1.53;1.43;;;14.70;99.90;;;;;;5007099;28;20329;-73
2022/09/29 08:06:20;;;;;;;1.97;1.80;;;14.90;99.90;;;;;;5004309;28;20203;-74
2022/09/29 08:08:48;;;;;;;1.60;1.50;;;15.20;99.90;;;;;;5007271;28;20199;-73
2022/09/29 08:11:17;;;;;;;3.70;3.10;;;15.50;99.90;;;;;;5003413;28;20594;-73
2022/09/29 08:13:45;;;;;;;2.70;2.50;;;15.60;99.90;;;;;;5008218;28;20195;-74
2022/09/29 08:16:14;;;;;;;3.10;2.10;;;15.60;99.90;;;;;;5007459;28;20284;-74
2022/09/29 08:18:42;;;;;;;1.70;1.60;;;15.60;99.90;;;;;;5007402;28;20305;-74
2022/09/29 08:21:10;;;;;;;2.07;1.87;;;15.40;99.90;;;;;;5008327;28;20663;-74
2022/09/29 08:23:41;;;;;;;1.70;1.60;;;15.40;99.90;;;;;;5007525;28;20223;-73
2022/09/29 08:26:11;;;;;;;1.80;1.70;;;15.30;99.90;;;;;;5004187;28;20222;-74
2022/09/29 08:28:39;;;;;;;1.80;1.70;;;15.20;99.90;;;;;;5006952;28;20207;-74
2022/09/29 08:31:09;;;;;;;1.67;1.57;;;15.10;99.90;;;;;;5006828;28;20205;-74
2022/09/29 08:33:36;;;;;;;1.20;1.20;;;15.10;99.90;;;;;;5007850;28;20195;-73
2022/09/29 08:36:13;;;;;;;1.40;1.30;;;15.10;99.90;;;;;;5011384;28;20667;-74
2022/09/29 08:38:42;;;;;;;1.50;1.40;;;15.10;99.90;;;;;;5010345;28;20198;-74
2022/09/29 08:41:19;;;;;;;1.50;1.40;;;15.10;99.90;;;;;;5009127;28;20200;-73
2022/09/29 08:43:47;;;;;;;1.40;1.30;;;15.20;99.90;;;;;;5010907;28;20190;-73
2022/09/29 08:46:25;;;;;;;3.47;1.43;;;15.10;99.90;;;;;;5009924;28;20285;-74
2022/09/29 08:48:54;;;;;;;1.60;1.50;;;15.10;99.90;;;;;;5011685;28;20203;-74
2022/09/29 08:51:29;;;;;;;3.33;2.30;;;15.10;99.90;;;;;;5010186;28;20917;-74
2022/09/29 08:53:59;;;;;;;1.60;1.50;;;15.10;99.90;;;;;;5010765;28;20199;-74
2022/09/29 08:56:26;;;;;;;2.00;1.90;;;15.10;99.90;;;;;;5011915;28;20261;-74
2022/09/29 08:58:53;;;;;;;1.70;1.60;;;15.00;99.90;;;;;;5011895;28;20194;-73
2022/09/29 09:01:34;;;;;;;2.00;1.80;;;15.00;99.90;;;;;;5008803;28;20735;-74
2022/09/29 09:04:28;;;;;;;1.50;1.40;;;15.00;99.90;;;;;;5006717;28;20230;-73
2022/09/29 09:07:09;;;;;;;1.60;1.50;;;15.00;99.90;;;;;;5011962;28;20195;-73
2022/09/29 09:09:56;;;;;;;1.57;1.47;;;15.00;99.90;;;;;;5010285;28;20598;-74
2022/09/29 09:12:33;;;;;;;1.50;1.40;;;15.00;99.90;;;;;;5009107;28;20206;-73
2022/09/29 09:15:22;;;;;;;1.93;1.47;;;15.00;99.90;;;;;;5009669;28;20576;-74
2022/09/29 09:18:02;;;;;;;1.43;1.33;;;15.00;99.90;;;;;;5007156;28;20298;-75
2022/09/29 09:20:33;;;;;;;1.53;1.43;;;15.00;99.90;;;;;;5011870;28;20222;-74
2022/09/29 09:23:06;;;;;;;1.70;1.60;;;15.00;99.90;;;;;;5010762;28;21006;-73
2022/09/29 09:25:35;;;;;;;2.07;1.87;;;15.00;99.90;;;;;;5008861;28;20765;-73
2022/09/29 09:28:12;;;;;;;1.80;1.70;;;15.10;99.90;;;;;;5009519;28;20207;-75
2022/09/29 09:30:44;;;;;;;3.10;2.20;;;15.10;99.90;;;;;;5011766;28;20223;-74
2022/09/29 09:33:21;;;;;;;2.37;2.20;;;15.10;99.80;;;;;;5008324;28;20214;-74
2022/09/29 09:35:52;;;;;;;2.00;1.57;;;15.10;99.70;;;;;;5009203;28;20243;-74
2022/09/29 09:38:24;;;;;;;1.70;1.60;;;15.10;99.80;;;;;;5009862;28;20249;-74
2022/09/29 09:40:55;;;;;;;1.83;1.73;;;15.10;99.90;;;;;;5003273;28;20191;-74
2022/09/29 09:43:27;;;;;;;3.20;1.50;;;15.30;99.90;;;;;;5007948;28;20202;-74
2022/09/29 09:46:00;;;;;;;1.40;1.30;;;15.60;99.90;;;;;;5010088;28;20634;-74
2022/09/29 09:48:35;;;;;;;1.63;1.40;;;16.30;99.80;;;;;;5006993;28;20652;-75
2022/09/29 09:51:11;;;;;;;1.63;1.33;;;17.70;98.80;;;;;;5009180;28;20279;-76
2022/09/29 09:53:42;;;;;;;1.63;1.52;;;19.30;96.90;;;;;;5008951;28;20241;-74
2022/09/29 09:56:19;;;;;;;3.72;1.85;;;20.50;94.40;;;;;;5009692;28;20270;-73
2022/09/29 09:59:05;;;;;;;1.55;1.45;;;21.40;93.00;;;;;;5006690;28;20195;-74
2022/09/29 10:01:33;;;;;;;1.10;1.10;;;22.70;91.30;;;;;;5008728;28;20207;-76
2022/09/29 10:04:02;;;;;;;1.33;1.23;;;23.90;89.70;;;;;;5022135;28;20232;-75
2022/09/29 10:06:29;;;;;;;1.33;1.27;;;24.80;85.80;;;;;;5008456;28;20691;-75
2022/09/29 10:08:56;;;;;;;1.20;1.20;;;25.40;82.60;;;;;;5009306;28;20275;-74
2022/09/29 10:11:25;;;;;;;1.30;1.20;;;26.10;78.00;;;;;;5007553;28;20675;-75
2022/09/29 10:14:13;;;;;;;1.20;1.20;;;26.90;74.20;;;;;;5010224;28;20237;-76
2022/09/29 10:16:45;;;;;;;2.63;1.17;;;27.50;68.40;;;;;;5009411;28;20200;-76
2022/09/29 10:19:14;;;;;;;1.50;1.40;;;27.50;66.60;;;;;;5007428;28;20215;-74
2022/09/29 10:21:42;;;;;;;1.17;1.17;;;26.50;66.10;;;;;;5003556;28;20464;-75
2022/09/29 10:24:22;;;;;;;1.17;1.17;;;25.20;67.60;;;;;;5008403;28;20298;-74
2022/09/29 10:26:52;;;;;;;1.65;1.55;;;23.90;69.60;;;;;;5008242;28;20191;-74
2022/09/29 10:29:25;;;;;;;1.35;1.33;;;23.80;71.10;;;;;;5010582;28;20286;-75
2022/09/29 10:32:14;;;;;;;1.38;1.30;;;24.80;70.40;;;;;;5007734;28;20548;-73
2022/09/29 10:34:46;;;;;;;1.77;1.30;;;26.30;67.90;;;;;;5004901;28;20531;-75
2022/09/29 10:37:23;;;;;;;1.20;1.20;;;27.50;65.10;;;;;;5007577;28;20277;-73
2022/09/29 10:39:51;;;;;;;1.40;1.30;;;28.30;61.70;;;;;;5011580;28;20281;-74
2022/09/29 10:42:26;;;;;;;0.80;0.80;;;28.40;59.30;;;;;;5006044;28;20275;-73
2022/09/29 10:44:55;;;;;;;1.23;1.20;;;28.50;59.00;;;;;;5005720;28;20338;-73
2022/09/29 10:47:31;;;;;;;1.40;1.40;;;28.70;58.50;;;;;;5006925;28;20313;-73
2022/09/29 10:50:15;;;;;;;1.17;1.17;;;29.00;56.90;;;;;;5007331;28;20718;-75
2022/09/29 10:52:44;;;;;;;1.30;1.20;;;28.60;57.40;;;;;;5004025;28;20195;-75
2022/09/29 10:55:18;;;;;;;1.35;1.35;;;28.40;56.30;;;;;;5006426;28;20184;-74
2022/09/29 10:57:46;;;;;;;1.50;1.40;;;28.00;56.10;;;;;;5015238;28;20208;-72
2022/09/29 11:00:26;;;;;;;1.40;1.40;;;27.50;56.00;;;;;;5007440;28;20199;-73
2022/09/29 11:02:59;;;;;;;1.38;1.27;;;26.50;56.80;;;;;;5006167;28;20341;-74
2022/09/29 11:05:31;;;;;;;2.05;1.55;;;25.70;57.60;;;;;;5007593;28;20305;-74
2022/09/29 11:07:58;;;;;;;2.15;1.42;;;24.70;58.20;;;;;;5008009;28;20290;-73
2022/09/29 11:10:30;;;;;;;1.45;1.40;;;23.70;58.70;;;;;;5008782;28;20269;-74
2022/09/29 11:12:59;;;;;;;1.00;1.00;;;23.00;59.70;;;;;;5009701;28;20197;-75
2022/09/29 11:15:28;;;;;;;0.90;0.90;;;22.40;60.60;;;;;;5008512;28;20205;-75
2022/09/29 11:17:56;;;;;;;1.67;1.58;;;21.90;61.60;;;;;;5007998;28;20201;-75
2022/09/29 11:20:31;;;;;;;1.00;1.00;;;21.40;62.20;;;;;;5004296;28;20210;-75
2022/09/29 11:23:23;;;;;;;2.17;1.15;;;21.10;63.10;;;;;;5006350;28;20626;-75
2022/09/29 11:26:06;;;;;;;1.35;1.35;;;20.80;63.90;;;;;;5007364;28;20754;-75
2022/09/29 11:29:10;;;;;;;1.65;1.40;;;20.80;65.10;;;;;;5008741;28;20713;-74
2022/09/29 11:31:44;;;;;;;1.38;1.27;;;21.10;64.70;;;;;;5001756;28;20217;-74
2022/09/29 11:34:45;;;;;;;1.10;1.10;;;21.10;64.40;;;;;;5005166;28;20281;-74
2022/09/29 11:37:27;;;;;;;1.00;1.00;;;20.90;64.50;;;;;;5002554;28;20199;-74
2022/09/29 11:40:02;;;;;;;1.35;1.25;;;20.70;65.10;;;;;;5003933;28;20229;-74
2022/09/29 11:42:55;;;;;;;1.27;1.27;;;20.50;65.60;;;;;;5008970;28;20195;-74
2022/09/29 11:45:37;;;;;;;1.40;1.35;;;20.20;66.30;;;;;;5006536;28;20310;-74
2022/09/29 11:48:43;;;;;;;1.77;1.40;;;20.10;67.10;;;;;;5019820;28;20587;-74
2022/09/29 11:51:20;;;;;;;1.38;1.27;;;20.10;67.30;;;;;;5002738;28;20215;-75
2022/09/29 11:54:06;;;;;;;1.95;1.30;;;20.20;67.60;;;;;;5007860;28;20654;-75
2022/09/29 11:56:44;;;;;;;1.25;1.15;;;21.50;67.70;;;;;;5006820;28;20562;-74
2022/09/29 11:59:31;;;;;;;1.42;1.10;;;22.90;65.30;;;;;;5007478;28;20274;-75
2022/09/29 12:02:19;;;;;;;3.10;1.60;;;23.10;63.60;;;;;;5007070;28;20326;-74
2022/09/29 12:04:57;;;;;;;1.55;1.50;;;22.90;63.00;;;;;;5005569;28;20242;-74
2022/09/29 12:07:39;;;;;;;1.60;1.50;;;23.20;62.80;;;;;;5008168;28;20485;-74
2022/09/29 12:10:31;;;;;;;1.40;1.30;;;23.50;62.10;;;;;;5004080;28;20338;-75
2022/09/29 12:13:08;;;;;;;1.77;1.52;;;23.70;61.90;;;;;;5006761;28;20214;-75
2022/09/29 12:15:47;;;;;;;1.50;1.40;;;23.60;61.20;;;;;;5007809;28;20194;-75
2022/09/29 12:18:18;;;;;;;1.20;1.20;;;24.60;61.20;;;;;;5002826;28;20622;-75
2022/09/29 12:20:48;;;;;;;1.20;1.20;;;26.10;59.40;;;;;;5005560;28;20298;-75
2022/09/29 12:23:20;;;;;;;1.45;1.35;;;27.40;57.50;;;;;;5006368;28;20608;-74
2022/09/29 12:25:56;;;;;;;4.63;1.55;;;27.60;55.70;;;;;;5007843;28;20207;-75
2022/09/29 12:28:28;;;;;;;1.20;1.20;;;27.10;55.30;;;;;;5007768;28;20253;-74
2022/09/29 12:30:59;;;;;;;1.27;1.17;;;26.80;55.60;;;;;;5006601;28;20361;-74
2022/09/29 12:33:32;;;;;;;1.63;1.52;;;26.10;56.20;;;;;;5006510;28;20191;-74
2022/09/29 12:39:00;;;;;;;1.25;1.15;;;24.50;57.60;;;;;;5005646;28;20800;-73
2022/09/29 12:41:32;;;;;;;1.38;1.15;;;23.70;58.70;;;;;;5004355;28;20198;-73
2022/09/29 12:44:07;;;;;;;1.20;1.10;;;23.00;59.20;;;;;;5008733;28;20191;-73
2022/09/29 12:46:40;;;;;;;1.10;1.10;;;22.50;59.80;;;;;;5003904;28;20281;-73
2022/09/29 12:49:13;;;;;;;8.27;1.45;;;22.00;60.60;;;;;;5007373;28;20240;-73
2022/09/29 12:51:45;;;;;;;1.20;1.20;;;21.50;61.10;;;;;;5007411;28;20716;-75
2022/09/29 12:54:19;;;;;;;1.60;1.13;;;21.30;61.90;;;;;;5005249;28;20657;-73
2022/09/29 12:56:53;;;;;;;1.20;1.10;;;21.10;62.20;;;;;;5004396;28;20188;-73
2022/09/29 12:59:31;;;;;;;1.85;1.10;;;20.80;62.90;;;;;;5005750;28;20206;-74
2022/09/29 13:01:59;;;;;;;1.08;1.08;;;20.60;63.30;;;;;;5007516;28;20233;-74
2022/09/29 13:05:11;;;;;;;1.40;1.30;;;20.40;63.70;;;;;;5005951;28;20257;-74
2022/09/29 13:08:08;;;;;;;2.15;1.50;;;20.20;64.20;;;;;;4946160;28;20684;-74
2022/09/29 13:11:01;;;;;;;1.45;1.42;;;20.40;64.80;;;;;;5003644;28;20207;-74
2022/09/29 13:13:50;;;;;;;1.70;1.60;;;20.30;64.90;;;;;;5003803;28;20651;-74
2022/09/29 13:16:30;;;;;;;5.78;1.67;;;20.20;65.60;;;;;;5008437;28;20196;-73
2022/09/29 13:19:34;;;;;;;1.40;1.30;;;20.10;66.10;;;;;;5004746;28;20195;-74